Welkom op de weersite van Veghel e.o.

Het is weer maart en dat betekend weer Lente.

Echter na de warme februari.

Nu weer onstuimig en regenachtig.

Het gezegde "maart roert zijn staart" is weer actueel.




Webcam Veghel  Webcam Veghel


Onweer radar Meer informatie blitzortung!


Regen radar Meer informatie rain snow radar


U vindt ons ook hier:

Het Weer Aktueel

European Weather Network

Weather Underground

Benelux Weer Netwerk

AWEKAS


Het weer levert geen direct gevaar op.    Er zijn geen waarschuwingen afgegeven.

METAR rapporten vliegvelden

   
EHAM - Amsterdam
Gewijzigd: 17-07-2019 18:55
Helder  
Helder  
   Wind: OZO 5.6 km/h
Wind: OZO 5.6 km/h
Temperatuur: 23°C
Dauwpunt: 14°C
Vochtigheid: 57%
Barometer: 1013 hPa
Zicht: meer dan 10 km
Bewolking: Helder ft
EHAM 171655Z 12003KT 090V160 CAVOK 23/14 Q1013 NOSIG
EHEH - Eindhoven
Gewijzigd: 17-07-2019 18:55
Bewolking  
Bewolking  
   Wind: varieert 3.7 km/h
Wind: varieert 3.7 km/h
Temperatuur: 23°C
Dauwpunt: 11°C
Vochtigheid: 47%
Barometer: 1013 hPa
Bewolking: Overcast
Zicht: meer dan 10 km
Bewolking: Bewolking 19000 ft
EHEH 171655Z AUTO VRB02KT 9999 OVC190 23/11 Q1013 BLU VRB03KT 9999 BKN036
EHGR - Gilze/Rijen
Gewijzigd: 17-07-2019 18:55
Bewolking  
Bewolking  
   Wind: OZO 7.4 km/h
Wind: OZO 7.4 km/h
Temperatuur: 24°C
Dauwpunt: 12°C
Vochtigheid: 47%
Barometer: 1013 hPa
Bewolking: Overcast
Zicht: meer dan 10 km
Bewolking: Bewolking 16000 ft
EHGR 171655Z AUTO 11004KT 100V180 9999 OVC160 24/12 Q1013 BLU
EHBK - Maastricht
Gewijzigd: 17-07-2019 18:55
Gedeeltelijk bewolkt  
Gedeeltelijk bewolkt  
   Wind: ONO 9.3 km/h
Wind: ONO 9.3 km/h
Temperatuur: 23°C
Dauwpunt: 11°C
Vochtigheid: 47%
Barometer: 1014 hPa
Bewolking: Partly Cloudy
Zicht: meer dan 10 km
Bewolking: Gedeeltelijk bewolkt ft
EHBK 171655Z AUTO 07005KT 030V130 9999 NSC 23/11 Q1014 NOSIG
EHVK - Volkel
Gewijzigd: 17-07-2019 18:55
Bewolking  
Bewolking  
   Wind: ONO 13 km/h
Wind: ONO 13 km/h
Temperatuur: 23°C
Dauwpunt: 12°C
Vochtigheid: 50%
Barometer: 1013 hPa
Bewolking: Overcast
Zicht: meer dan 10 km
Bewolking: Gedeeltelijk bewolkt 19000 ft,
Bewolking 34000 ft
EHVK 171655Z AUTO 07007KT 040V100 9999 SCT190 OVC340 23/12 Q1013 BLU
EHFS - Vlissingen
Gewijzigd: 17-07-2019 18:55
Gedeeltelijk bewolkt  
Gedeeltelijk bewolkt  
   Wind: NO 9.3 km/h
Wind: NO 9.3 km/h
Temperatuur: 23°C
Dauwpunt: 14°C
Vochtigheid: 57%
Barometer: 1013 hPa
Bewolking: Partly Cloudy
Zicht: meer dan 10 km
Bewolking: Gedeeltelijk bewolkt ft
EHFS 171655Z AUTO 05005KT 020V080 9999 NSC 23/14 Q1013 W///H///

Script ontwikkeld door  Saratoga-weather.org Aangepast voor de template door  Weerstation Leuven

Apparatuur in gebruik:

Weerstation
Davis VP2

Weerprogramma
WeatherLink

Weercomputer
Sponsor

Webleverancier
My provider

Davis VP2

WeatherLink

Sponsor

My provider